createdAt,value
2022-12-15T00:02:21.711Z,-8.98
2022-12-15T00:05:08.552Z,-8.96
2022-12-15T00:07:53.888Z,-9.02
2022-12-15T00:10:39.191Z,-9.10
2022-12-15T00:13:29.314Z,-9.08
2022-12-15T00:16:14.938Z,-9.06
2022-12-15T00:18:59.827Z,-9.16
2022-12-15T00:21:46.885Z,-9.17
2022-12-15T00:24:32.313Z,-9.24
2022-12-15T00:27:17.492Z,-9.23
2022-12-15T00:30:02.675Z,-9.11
2022-12-15T00:32:47.920Z,-9.11
2022-12-15T00:35:33.209Z,-9.15
2022-12-15T00:38:25.489Z,-9.17
2022-12-15T00:40:58.838Z,-9.16
2022-12-15T00:43:26.811Z,-9.16
2022-12-15T00:46:11.919Z,-9.21
2022-12-15T00:48:39.733Z,-9.22
2022-12-15T00:51:06.836Z,-9.20
2022-12-15T00:53:53.187Z,-9.38
2022-12-15T00:56:38.465Z,-9.36
2022-12-15T00:59:23.843Z,-9.33
2022-12-15T01:02:09.070Z,-9.38
2022-12-15T01:04:54.220Z,-9.38
2022-12-15T01:07:39.368Z,-9.43
2022-12-15T01:10:26.814Z,-9.28
2022-12-15T01:13:12.180Z,-9.30
2022-12-15T01:15:57.920Z,-9.36
2022-12-15T01:18:43.725Z,-9.52
2022-12-15T01:21:17.413Z,-9.58
2022-12-15T01:23:45.078Z,-9.56
2022-12-15T01:26:14.134Z,-9.58
2022-12-15T01:28:41.797Z,-9.45
2022-12-15T01:31:12.994Z,-9.52
2022-12-15T01:33:42.551Z,-9.61
2022-12-15T01:36:11.216Z,-9.61
2022-12-15T01:38:38.948Z,-9.65
2022-12-15T01:41:08.208Z,-9.60
2022-12-15T01:43:38.939Z,-9.52
2022-12-15T01:46:07.830Z,-9.62
2022-12-15T01:48:40.765Z,-9.57
2022-12-15T01:51:24.903Z,-9.52
2022-12-15T01:53:58.844Z,-9.52
2022-12-15T01:56:32.428Z,-9.51
2022-12-15T01:59:05.858Z,-9.55
2022-12-15T02:01:33.615Z,-9.63
2022-12-15T02:04:01.838Z,-9.63
2022-12-15T02:06:30.797Z,-9.54
2022-12-15T02:09:01.482Z,-9.64
2022-12-15T02:11:43.885Z,-9.66
2022-12-15T02:14:20.724Z,-9.66
2022-12-15T02:16:58.744Z,-9.71
2022-12-15T02:19:54.574Z,-9.79
2022-12-15T02:22:33.068Z,-9.71
2022-12-15T02:25:21.938Z,-9.68
2022-12-15T02:27:57.781Z,-9.77
2022-12-15T02:30:36.439Z,-9.81
2022-12-15T02:33:28.653Z,-9.86
2022-12-15T02:36:01.091Z,-9.88
2022-12-15T02:38:33.768Z,-9.94
2022-12-15T02:41:03.212Z,-9.90
2022-12-15T02:43:34.355Z,-9.82
2022-12-15T02:46:15.712Z,-9.77
2022-12-15T02:48:54.379Z,-9.73
2022-12-15T02:51:35.011Z,-9.74
2022-12-15T02:54:23.077Z,-9.75
2022-12-15T02:57:03.905Z,-9.73
2022-12-15T02:59:39.570Z,-9.70
2022-12-15T03:02:10.791Z,-9.71
2022-12-15T03:04:38.556Z,-9.74
2022-12-15T03:07:10.155Z,-9.86
2022-12-15T03:09:37.880Z,-10.05
2022-12-15T03:12:05.986Z,-10.04
2022-12-15T03:14:33.615Z,-9.97
2022-12-15T03:17:01.352Z,-9.96
2022-12-15T03:19:30.485Z,-10.01
2022-12-15T03:21:58.166Z,-9.88
2022-12-15T03:24:25.783Z,-9.84
2022-12-15T03:26:53.410Z,-9.81
2022-12-15T03:29:21.047Z,-9.67
2022-12-15T03:31:50.050Z,-9.49
2022-12-15T03:34:18.426Z,-9.26
2022-12-15T03:36:47.783Z,-9.17
2022-12-15T03:39:15.473Z,-9.10
2022-12-15T03:41:43.093Z,-9.04
2022-12-15T03:44:10.867Z,-8.97
2022-12-15T03:46:38.486Z,-9.02
2022-12-15T03:49:06.275Z,-9.10
2022-12-15T03:51:33.952Z,-9.18
2022-12-15T03:54:02.976Z,-9.30
2022-12-15T03:56:30.651Z,-9.34
2022-12-15T03:58:58.368Z,-9.28
2022-12-15T04:01:29.720Z,-9.16
2022-12-15T04:04:00.944Z,-9.09
2022-12-15T04:06:29.691Z,-9.14
2022-12-15T04:08:57.485Z,-9.43
2022-12-15T04:11:26.467Z,-9.29
2022-12-15T04:13:54.125Z,-9.22
2022-12-15T04:16:21.830Z,-9.07
2022-12-15T04:19:10.901Z,-9.21
2022-12-15T04:21:37.565Z,-9.19
2022-12-15T04:24:23.823Z,-9.25
2022-12-15T04:27:10.258Z,-9.23
2022-12-15T04:29:55.719Z,-9.08
2022-12-15T04:32:41.455Z,-9.09
2022-12-15T04:35:27.704Z,-9.15
2022-12-15T04:38:12.887Z,-9.23
2022-12-15T04:40:58.160Z,-9.23
2022-12-15T04:43:44.729Z,-9.31
2022-12-15T04:46:30.152Z,-9.31
2022-12-15T04:49:15.181Z,-9.38
2022-12-15T04:52:00.470Z,-9.31
2022-12-15T04:54:45.636Z,-9.28
2022-12-15T04:57:30.987Z,-9.47
2022-12-15T05:00:17.589Z,-9.55
2022-12-15T05:03:02.792Z,-9.33
2022-12-15T05:05:48.117Z,-9.41
2022-12-15T05:08:33.318Z,-9.35
2022-12-15T05:11:18.553Z,-9.23
2022-12-15T05:14:03.910Z,-9.11
2022-12-15T05:16:50.517Z,-9.12
2022-12-15T05:19:35.861Z,-9.02
2022-12-15T05:22:21.242Z,-8.99
2022-12-15T05:25:06.551Z,-9.15
2022-12-15T05:27:51.872Z,-9.10
2022-12-15T05:30:37.223Z,-9.06
2022-12-15T05:33:07.044Z,-9.15
2022-12-15T05:35:34.784Z,-9.28
2022-12-15T05:38:02.421Z,-9.19
2022-12-15T05:40:30.215Z,-9.25
2022-12-15T05:42:59.059Z,-9.19
2022-12-15T05:45:26.925Z,-9.09
2022-12-15T05:47:55.741Z,-9.10
2022-12-15T05:50:25.024Z,-9.15
2022-12-15T05:52:52.841Z,-9.25
2022-12-15T05:55:20.788Z,-9.27
2022-12-15T05:57:52.366Z,-9.23
2022-12-15T06:00:20.820Z,-9.26
2022-12-15T06:02:49.765Z,-9.27
2022-12-15T06:05:17.768Z,-9.22
2022-12-15T06:07:46.904Z,-9.45
2022-12-15T06:10:14.871Z,-9.55
2022-12-15T06:12:42.516Z,-9.27
2022-12-15T06:15:11.033Z,-9.15
2022-12-15T06:17:38.643Z,-9.31
2022-12-15T06:20:07.238Z,-9.31
2022-12-15T06:22:34.933Z,-9.14
2022-12-15T06:25:04.150Z,-9.03
2022-12-15T06:27:31.800Z,-9.15
2022-12-15T06:29:59.493Z,-9.18
2022-12-15T06:32:27.182Z,-9.03
2022-12-15T06:34:54.913Z,-8.98
2022-12-15T06:37:22.578Z,-9.07
2022-12-15T06:39:50.218Z,-9.08
2022-12-15T06:42:19.167Z,-9.11
2022-12-15T06:44:46.769Z,-9.07
2022-12-15T06:47:18.250Z,-9.14
2022-12-15T06:49:45.860Z,-8.97
2022-12-15T06:52:13.555Z,-9.01
2022-12-15T06:54:41.356Z,-8.94
2022-12-15T06:57:08.947Z,-8.86
2022-12-15T06:59:37.991Z,-9.01
2022-12-15T07:02:05.996Z,-8.91
2022-12-15T07:04:33.866Z,-8.95
2022-12-15T07:07:01.515Z,-9.00
2022-12-15T07:09:29.135Z,-9.00
2022-12-15T07:11:56.803Z,-9.06
2022-12-15T07:14:25.751Z,-9.26
2022-12-15T07:16:55.009Z,-8.99
2022-12-15T07:19:22.643Z,-9.16
2022-12-15T07:21:50.428Z,-9.20
2022-12-15T07:24:18.032Z,-9.21
2022-12-15T07:26:46.082Z,-9.29
2022-12-15T07:29:23.024Z,-9.29
2022-12-15T07:31:51.278Z,-9.29
2022-12-15T07:34:20.378Z,-9.13
2022-12-15T07:36:52.134Z,-9.42
2022-12-15T07:39:20.498Z,-9.28
2022-12-15T07:41:48.351Z,-9.32
2022-12-15T07:44:16.135Z,-9.27
2022-12-15T07:46:46.763Z,-9.24
2022-12-15T07:49:14.802Z,-9.42
2022-12-15T07:51:44.005Z,-9.39
2022-12-15T07:54:12.579Z,-9.42
2022-12-15T07:56:40.413Z,-9.39
2022-12-15T07:59:08.785Z,-9.41
2022-12-15T08:01:36.741Z,-9.12
2022-12-15T08:04:06.064Z,-9.14
2022-12-15T08:06:33.746Z,-9.19
2022-12-15T08:09:03.087Z,-9.37
2022-12-15T08:11:34.420Z,-9.29
2022-12-15T08:14:04.005Z,-9.42
2022-12-15T08:16:34.538Z,-9.44
2022-12-15T08:19:02.465Z,-9.23
2022-12-15T08:21:31.149Z,-9.11
2022-12-15T08:24:00.698Z,-9.09
2022-12-15T08:26:31.312Z,-9.20
2022-12-15T08:29:31.803Z,-9.39
2022-12-15T08:31:51.568Z,-9.20
2022-12-15T08:34:19.326Z,-9.14
2022-12-15T08:36:47.039Z,-8.95
2022-12-15T08:39:14.781Z,-9.04
2022-12-15T08:41:43.823Z,-8.91
2022-12-15T08:44:11.475Z,-8.66
2022-12-15T08:46:39.846Z,-8.77
2022-12-15T08:49:08.636Z,-8.82
2022-12-15T08:51:36.303Z,-8.80
2022-12-15T08:54:04.012Z,-8.83
2022-12-15T08:56:31.728Z,-8.96
2022-12-15T08:59:02.271Z,-8.78
2022-12-15T09:01:31.871Z,-8.90
2022-12-15T09:04:01.289Z,-8.87
2022-12-15T09:06:30.847Z,-8.76
2022-12-15T09:09:00.023Z,-8.50
2022-12-15T09:11:29.103Z,-8.50
2022-12-15T09:13:57.564Z,-8.48
2022-12-15T09:16:30.847Z,-8.54
2022-12-15T09:19:00.499Z,-8.57
2022-12-15T09:21:30.574Z,-8.73
2022-12-15T09:24:00.599Z,-8.63
2022-12-15T09:26:30.257Z,-8.57
2022-12-15T09:28:58.175Z,-8.56
2022-12-15T09:31:29.296Z,-8.56
2022-12-15T09:33:58.752Z,-8.42
2022-12-15T09:36:27.734Z,-8.40
2022-12-15T09:38:55.702Z,-8.25
2022-12-15T09:41:27.104Z,-8.08
2022-12-15T09:43:59.216Z,-7.97
2022-12-15T09:46:43.162Z,-7.76
2022-12-15T09:49:19.550Z,-7.72
2022-12-15T09:51:51.748Z,-7.69
2022-12-15T09:54:20.684Z,-7.60
2022-12-15T09:56:54.132Z,-7.56
2022-12-15T09:59:31.047Z,-7.54
2022-12-15T10:02:19.451Z,-7.38
2022-12-15T10:04:55.709Z,-7.31
2022-12-15T10:07:31.014Z,-7.19
2022-12-15T10:09:58.962Z,-7.05
2022-12-15T10:12:31.443Z,-7.09
2022-12-15T10:15:13.711Z,-6.93
2022-12-15T10:17:50.195Z,-6.91
2022-12-15T10:20:21.170Z,-6.93
2022-12-15T10:25:37.018Z,-6.56
2022-12-15T10:28:28.686Z,-6.49
2022-12-15T10:31:00.084Z,-6.68
2022-12-15T10:33:36.060Z,-6.46
2022-12-15T10:36:10.023Z,-6.33
2022-12-15T10:38:40.383Z,-6.23
2022-12-15T10:41:10.432Z,-6.14
2022-12-15T10:43:40.446Z,-6.20
2022-12-15T10:46:14.823Z,-5.97
2022-12-15T10:48:48.571Z,-5.91
2022-12-15T10:51:22.743Z,-5.88
2022-12-15T10:53:54.072Z,-5.72
2022-12-15T10:56:32.337Z,-5.73
2022-12-15T10:59:02.775Z,-5.66
2022-12-15T11:01:31.500Z,-5.58
2022-12-15T11:04:01.385Z,-5.54
2022-12-15T11:06:32.183Z,-5.28
2022-12-15T11:09:10.052Z,-5.19
2022-12-15T11:12:11.895Z,-5.06
2022-12-15T11:14:46.030Z,-4.94
2022-12-15T11:17:18.196Z,-4.87
2022-12-15T11:19:59.824Z,-5.03
2022-12-15T11:22:36.541Z,-4.90
2022-12-15T11:25:11.895Z,-4.68
2022-12-15T11:27:44.233Z,-4.54
2022-12-15T11:30:15.279Z,-4.52
2022-12-15T11:32:45.653Z,-4.39
2022-12-15T11:35:23.184Z,-4.16
2022-12-15T11:37:57.289Z,-4.06
2022-12-15T11:40:36.249Z,-3.70
2022-12-15T11:43:28.257Z,-3.84
2022-12-15T11:46:08.929Z,-4.13
2022-12-15T11:48:50.824Z,-4.19
2022-12-15T11:51:26.217Z,-3.99
2022-12-15T11:54:06.578Z,-3.88
2022-12-15T11:56:35.302Z,-3.67
2022-12-15T11:59:24.953Z,-3.39
2022-12-15T12:02:05.120Z,-3.23
2022-12-15T12:04:44.071Z,-3.20
2022-12-15T12:07:25.351Z,-3.39
2022-12-15T12:10:04.760Z,-3.65
2022-12-15T12:12:39.929Z,-3.85
2022-12-15T12:15:24.042Z,-3.99
2022-12-15T12:17:56.513Z,-3.92
2022-12-15T12:20:29.222Z,-3.97
2022-12-15T12:23:03.385Z,-3.98
2022-12-15T12:25:35.552Z,-4.01
2022-12-15T12:28:07.888Z,-3.95
2022-12-15T12:30:42.335Z,-3.98
2022-12-15T12:33:17.953Z,-3.84
2022-12-15T12:35:51.231Z,-3.90
2022-12-15T12:38:26.010Z,-3.87
2022-12-15T12:41:03.820Z,-3.83
2022-12-15T12:46:26.420Z,-3.59
2022-12-15T12:48:59.906Z,-3.37
2022-12-15T12:51:30.719Z,-3.33
2022-12-15T12:54:00.918Z,-3.47
2022-12-15T12:56:36.727Z,-3.32
2022-12-15T12:59:08.648Z,-3.48
2022-12-15T13:01:38.366Z,-3.42
2022-12-15T13:04:09.605Z,-3.33
2022-12-15T13:07:01.421Z,-3.37
2022-12-15T13:10:01.883Z,-3.46
2022-12-15T13:12:53.480Z,-3.50
2022-12-15T13:15:36.182Z,-3.51
2022-12-15T13:18:12.170Z,-3.61
2022-12-15T13:20:41.553Z,-3.59
2022-12-15T13:23:36.709Z,-3.55
2022-12-15T13:26:19.149Z,-3.53
2022-12-15T13:28:51.596Z,-3.35
2022-12-15T13:31:42.906Z,-3.36
2022-12-15T13:34:25.846Z,-3.33
2022-12-15T13:37:01.703Z,-3.48
2022-12-15T13:39:56.395Z,-3.52
2022-12-15T13:42:48.306Z,-3.42
2022-12-15T13:45:50.584Z,-3.54
2022-12-15T13:48:30.859Z,-3.52
2022-12-15T13:51:04.726Z,-3.61
2022-12-15T13:53:39.971Z,-3.57
2022-12-15T13:56:22.276Z,-3.55
2022-12-15T13:58:58.537Z,-3.66
2022-12-15T14:01:32.242Z,-3.64
2022-12-15T14:04:08.231Z,-3.56
2022-12-15T14:06:39.595Z,-3.55
2022-12-15T14:09:13.526Z,-3.52
2022-12-15T14:11:53.273Z,-3.58
2022-12-15T14:14:26.664Z,-3.58
2022-12-15T14:16:58.671Z,-3.63
2022-12-15T14:19:26.935Z,-3.62
2022-12-15T14:21:56.299Z,-3.66
2022-12-15T14:27:24.798Z,-3.81
2022-12-15T14:30:13.652Z,-3.83
2022-12-15T14:32:42.622Z,-3.84
2022-12-15T14:35:15.609Z,-3.92
2022-12-15T14:37:43.679Z,-4.01
2022-12-15T14:40:16.222Z,-4.03
2022-12-15T14:42:44.496Z,-4.13
2022-12-15T14:45:20.849Z,-4.14
2022-12-15T14:48:13.399Z,-4.19
2022-12-15T14:50:46.939Z,-4.22
2022-12-15T14:53:16.848Z,-4.24
2022-12-15T14:55:44.683Z,-4.29
2022-12-15T14:58:30.501Z,-4.35
2022-12-15T15:01:00.343Z,-4.39
2022-12-15T15:03:05.025Z,-3.65
2022-12-15T15:03:10.262Z,-6.93
2022-12-15T15:03:14.310Z,-3.72
2022-12-15T15:03:37.176Z,-4.41
2022-12-15T15:06:16.582Z,-4.47
2022-12-15T15:08:47.893Z,-4.53
2022-12-15T15:11:25.019Z,-4.51
2022-12-15T15:13:56.513Z,-4.52
2022-12-15T15:16:25.750Z,-4.52
2022-12-15T15:18:56.079Z,-4.47
2022-12-15T15:21:24.998Z,-4.45
2022-12-15T15:24:00.370Z,-4.43
2022-12-15T15:26:28.656Z,-4.46
2022-12-15T15:28:56.791Z,-4.48
2022-12-15T15:31:38.543Z,-4.55
2022-12-15T15:34:08.790Z,-4.54
2022-12-15T15:36:38.398Z,-4.55
2022-12-15T15:39:13.073Z,-4.57
2022-12-15T15:41:40.784Z,-4.61
2022-12-15T15:44:14.385Z,-4.68
2022-12-15T15:46:47.610Z,-4.78
2022-12-15T15:49:19.070Z,-4.72
2022-12-15T15:51:46.968Z,-4.79
2022-12-15T15:54:17.402Z,-4.84
2022-12-15T15:56:45.111Z,-4.92
2022-12-15T15:59:14.311Z,-4.98
2022-12-15T16:01:42.216Z,-5.06
2022-12-15T16:04:11.492Z,-5.15
2022-12-15T16:06:43.633Z,-5.14
2022-12-15T16:09:16.680Z,-5.18
2022-12-15T16:11:45.634Z,-5.20
2022-12-15T16:14:14.195Z,-5.26
2022-12-15T16:16:42.689Z,-5.30
2022-12-15T16:19:12.000Z,-5.40
2022-12-15T16:21:40.862Z,-5.47
2022-12-15T16:24:12.220Z,-5.42
2022-12-15T16:26:47.146Z,-5.41
2022-12-15T16:29:17.467Z,-5.41
2022-12-15T16:31:45.982Z,-5.35
2022-12-15T16:34:16.482Z,-5.35
2022-12-15T16:36:45.194Z,-5.38
2022-12-15T16:39:27.786Z,-5.40
2022-12-15T16:41:57.029Z,-5.47
2022-12-15T16:44:25.642Z,-5.44
2022-12-15T16:46:53.569Z,-5.42
2022-12-15T16:49:22.701Z,-5.44
2022-12-15T16:51:53.377Z,-5.49
2022-12-15T16:54:23.413Z,-5.60
2022-12-15T16:56:52.877Z,-5.66
2022-12-15T16:59:32.988Z,-5.67
2022-12-15T17:02:02.165Z,-5.68
2022-12-15T17:04:31.330Z,-5.69
2022-12-15T17:06:59.000Z,-5.71
2022-12-15T17:09:26.901Z,-5.72
2022-12-15T17:11:54.658Z,-5.79
2022-12-15T17:14:22.377Z,-5.85
2022-12-15T17:16:50.251Z,-5.77
2022-12-15T17:19:21.362Z,-5.69
2022-12-15T17:21:53.950Z,-5.75
2022-12-15T17:24:22.809Z,-5.79
2022-12-15T17:26:50.974Z,-5.82
2022-12-15T17:29:22.696Z,-5.80
2022-12-15T17:31:50.403Z,-5.79
2022-12-15T17:34:30.069Z,-5.83
2022-12-15T17:37:00.597Z,-5.91
2022-12-15T17:39:29.019Z,-5.92
2022-12-15T17:42:01.359Z,-5.97
2022-12-15T17:44:34.303Z,-5.92
2022-12-15T17:47:04.306Z,-5.92
2022-12-15T17:49:36.164Z,-5.91
2022-12-15T17:52:09.087Z,-5.92
2022-12-15T17:54:36.790Z,-5.95
2022-12-15T17:57:04.588Z,-6.01
2022-12-15T17:59:32.570Z,-6.06
2022-12-15T18:02:00.272Z,-6.07
2022-12-15T18:04:28.077Z,-6.13
2022-12-15T18:07:01.630Z,-6.16
2022-12-15T18:09:31.420Z,-6.15
2022-12-15T18:11:59.384Z,-6.20
2022-12-15T18:14:28.673Z,-6.36
2022-12-15T18:16:56.306Z,-6.42
2022-12-15T18:19:24.209Z,-6.47
2022-12-15T18:21:51.867Z,-6.47
2022-12-15T18:24:21.509Z,-6.48
2022-12-15T18:26:50.495Z,-6.56
2022-12-15T18:29:18.944Z,-6.55
2022-12-15T18:31:49.404Z,-6.55
2022-12-15T18:34:21.015Z,-6.58
2022-12-15T18:36:48.748Z,-6.52
2022-12-15T18:39:23.128Z,-6.52
2022-12-15T18:41:54.623Z,-6.56
2022-12-15T18:44:24.768Z,-6.58
2022-12-15T18:46:52.691Z,-6.65
2022-12-15T18:49:23.043Z,-6.65
2022-12-15T18:51:50.920Z,-6.45
2022-12-15T18:54:20.970Z,-6.50
2022-12-15T18:56:49.062Z,-6.56
2022-12-15T18:59:19.676Z,-6.57
2022-12-15T19:01:49.596Z,-6.59
2022-12-15T19:04:17.324Z,-6.62
2022-12-15T19:06:45.746Z,-6.63
2022-12-15T19:09:16.584Z,-6.59
2022-12-15T19:12:16.893Z,-6.65
2022-12-15T19:14:46.995Z,-6.63
2022-12-15T19:17:33.988Z,-6.68
2022-12-15T19:20:19.756Z,-6.66
2022-12-15T19:22:48.586Z,-6.71
2022-12-15T19:25:25.538Z,-6.70
2022-12-15T19:27:58.689Z,-6.76
2022-12-15T19:30:29.901Z,-6.77
2022-12-15T19:32:57.771Z,-6.85
2022-12-15T19:35:27.203Z,-6.88
2022-12-15T19:37:57.879Z,-6.79
2022-12-15T19:40:29.321Z,-6.80
2022-12-15T19:42:58.208Z,-6.81
2022-12-15T19:45:29.501Z,-6.88
2022-12-15T19:47:57.402Z,-6.88
2022-12-15T19:50:27.348Z,-6.93
2022-12-15T19:52:57.679Z,-6.92
2022-12-15T19:55:28.046Z,-6.89
2022-12-15T19:57:55.684Z,-6.92
2022-12-15T20:00:24.688Z,-6.89
2022-12-15T20:02:55.745Z,-6.86
2022-12-15T20:05:24.115Z,-6.88
2022-12-15T20:07:53.356Z,-6.91
2022-12-15T20:10:29.344Z,-6.92
2022-12-15T20:12:57.704Z,-6.99
2022-12-15T20:15:26.565Z,-7.02
2022-12-15T20:17:56.565Z,-7.07
2022-12-15T20:20:25.510Z,-7.15
2022-12-15T20:22:57.155Z,-7.14
2022-12-15T20:25:27.234Z,-7.20
2022-12-15T20:27:54.958Z,-7.21
2022-12-15T20:30:25.024Z,-7.05
2022-12-15T20:32:52.912Z,-7.07
2022-12-15T20:35:23.366Z,-6.97
2022-12-15T20:37:52.473Z,-6.98
2022-12-15T20:40:23.799Z,-7.03
2022-12-15T20:42:52.577Z,-7.12
2022-12-15T20:45:23.229Z,-7.15
2022-12-15T20:47:53.435Z,-7.14
2022-12-15T20:50:26.914Z,-7.16
2022-12-15T20:52:55.466Z,-7.23
2022-12-15T20:55:23.294Z,-7.30
2022-12-15T20:57:51.025Z,-7.33
2022-12-15T21:00:19.394Z,-7.32
2022-12-15T21:02:47.808Z,-7.30
2022-12-15T21:05:19.806Z,-7.39
2022-12-15T21:07:50.536Z,-7.44
2022-12-15T21:10:20.052Z,-7.39
2022-12-15T21:12:49.595Z,-7.41
2022-12-15T21:15:19.487Z,-7.37
2022-12-15T21:17:57.328Z,-7.35
2022-12-15T21:20:35.752Z,-7.39
2022-12-15T21:23:04.726Z,-7.35
2022-12-15T21:25:32.544Z,-7.31
2022-12-15T21:28:00.201Z,-7.30
2022-12-15T21:30:27.966Z,-7.34
2022-12-15T21:32:55.694Z,-7.41
2022-12-15T21:35:26.153Z,-7.39
2022-12-15T21:37:56.392Z,-7.44
2022-12-15T21:40:29.398Z,-7.50
2022-12-15T21:42:57.998Z,-7.47
2022-12-15T21:45:27.086Z,-7.50
2022-12-15T21:48:12.203Z,-7.54
2022-12-15T21:50:40.926Z,-7.58
2022-12-15T21:53:15.779Z,-7.59
2022-12-15T21:55:46.415Z,-7.55
2022-12-15T21:58:20.342Z,-7.53
2022-12-15T22:00:48.251Z,-7.63
2022-12-15T22:03:16.017Z,-7.56
2022-12-15T22:05:43.694Z,-7.58
2022-12-15T22:08:17.148Z,-7.63
2022-12-15T22:10:47.692Z,-7.65
2022-12-15T22:13:20.470Z,-7.65
2022-12-15T22:15:50.634Z,-7.59
2022-12-15T22:18:22.899Z,-7.64
2022-12-15T22:20:52.386Z,-7.70
2022-12-15T22:23:21.299Z,-7.75
2022-12-15T22:25:54.125Z,-7.72
2022-12-15T22:28:25.005Z,-7.76
2022-12-15T22:30:54.002Z,-7.78
2022-12-15T22:33:24.573Z,-7.66
2022-12-15T22:35:53.227Z,-7.76
2022-12-15T22:38:24.024Z,-7.82
2022-12-15T22:40:55.664Z,-7.79
2022-12-15T22:43:27.263Z,-7.81
2022-12-15T22:45:56.449Z,-7.78
2022-12-15T22:48:32.995Z,-7.81
2022-12-15T22:51:01.042Z,-7.89
2022-12-15T22:53:31.789Z,-8.00
2022-12-15T22:56:02.351Z,-8.02
2022-12-15T22:58:36.126Z,-7.91
2022-12-15T23:01:06.862Z,-7.99
2022-12-15T23:03:35.598Z,-8.01
2022-12-15T23:06:04.672Z,-7.99
2022-12-15T23:08:32.931Z,-7.98
2022-12-15T23:11:19.479Z,-7.96
2022-12-15T23:13:47.117Z,-8.03
2022-12-15T23:16:21.219Z,-8.01
2022-12-15T23:18:50.297Z,-7.95
2022-12-15T23:21:20.989Z,-8.01
2022-12-15T23:23:48.932Z,-8.06
2022-12-15T23:26:19.640Z,-8.11
2022-12-15T23:28:47.322Z,-8.17
2022-12-15T23:31:14.976Z,-8.26
2022-12-15T23:33:42.895Z,-8.24
2022-12-15T23:36:11.023Z,-8.18
2022-12-15T23:38:39.191Z,-8.14
2022-12-15T23:41:07.031Z,-8.13
2022-12-15T23:43:37.673Z,-8.13
2022-12-15T23:46:07.624Z,-8.12
2022-12-15T23:48:38.066Z,-8.12
2022-12-15T23:51:08.068Z,-8.16
2022-12-15T23:53:37.105Z,-8.21
2022-12-15T23:56:07.296Z,-8.21
2022-12-15T23:58:37.667Z,-8.19
